Ballina Airport AWS, Australia

12:36 AM AEDT on February 28, 2017 (GMT +1100)
Ballina | | Change Station

Elev 20 ft 28.87 °S, 153.55 °E | Updated 6 seconds ago

Rain
Rain
67.3 °F
Feels Like 67.3 °F
N
0.0
Wind Variable Wind from SW
Gusts 0.0 mph

Today
High -- | Low -- °F
--% Chance of Precip.
Yesterday
High -- | Low -- °F
Precip. -- in
Pressure 30.12 in
Visibility 1.6 miles
Clouds Scattered Clouds 3200 ft
Scattered Clouds 5100 ft
Mostly Cloudy 6100 ft
Dew Point 66 °F
Humidity 94%
Rainfall in
Snow Depth Not available.
6:36 AM 7:19 PM
New Moon, 1% visible
METAR YBNA 271300Z AUTO 00000KT 2500 // SCT032 SCT051 BKN061 19/18 Q1020
Pressure 30.12 in
Visibility 1.6 miles
Clouds Scattered Clouds 3200 ft
Scattered Clouds 5100 ft
Mostly Cloudy 6100 ft
Dew Point 66 °F
Humidity 94%
Rainfall in
Snow Depth Not available.
6:36 AM 7:19 PM
New Moon, 1% visible
METAR YBNA 271300Z AUTO 00000KT 2500 // SCT032 SCT051 BKN061 19/18 Q1020

Get Your Daily Forecast Email!

Thanks for signing up!

Be on the lookout for a verification email in your inbox.

You'll start receiving the daily forecast at 8 AM.

×

10-Day Weather Forecast

×

Almanac

Astronomy

Feb. 28, 2017 Rise Set
Actual Time
Civil Twilight
Nautical Twilight
Astronomical Twilight
Moon
Length of Visible Light
Length of Day
Tomorrow will be .
, % of the Moon is Illuminated

Today's Extremes

Country Highs Country Lows

Community

WunderPhotos

Upload Photos

1,962,540 photos uploaded!

WunderBlog® & News

Nearby

Air Quality

  Air Quality AQ Index Pollutant
Not available.

Snow Depth

Station Depth Elevation

Earthquake Activity

City Distance Mag. Time & Date
Minimum magnitude displayed is 2.5.

Coastal Water Temperatures

Place Temperature

Stations

Nearby Weather Stations

Station Location Temp. Windchill Dew Point Humidity Wind Precip. Elev Updated Type